Time;durP1;ratioP1;P1;durP2;ratioP2;P2;SDS_P1;SDS_P2;PMS_P1;PMS_P2;Temp;Humidity;BMP_temperature;BMP_pressure;BME280_temperature;BME280_humidity;BME280_pressure;Samples;Min_cycle;Max_cycle;Signal;HPM_P1;HPM_P2
2021/01/29 04:03:33;;;;;;;4.08;2.17;;;;;;;-0.33;100.00;99075.30;1752207;77;21534;-74
2021/01/29 04:06:26;;;;;;;3.98;2.27;;;;;;;-0.39;100.00;99075.86;1798583;78;21175;-74
2021/01/29 04:09:23;;;;;;;4.62;2.27;;;;;;;-0.46;100.00;99087.61;1770709;78;21376;-70
2021/01/29 04:12:10;;;;;;;4.05;2.25;;;;;;;-0.54;100.00;99085.75;1801141;78;21055;-74
2021/01/29 04:14:51;;;;;;;4.67;2.67;;;;;;;-0.61;100.00;99085.97;1795647;78;21195;-73
2021/01/29 04:17:33;;;;;;;6.35;2.52;;;;;;;-0.64;100.00;99091.88;1798316;78;21080;-74
2021/01/29 04:20:13;;;;;;;5.83;2.85;;;;;;;-0.68;100.00;99096.47;1802184;78;21103;-67
2021/01/29 04:22:41;;;;;;;5.65;3.55;;;;;;;-0.70;100.00;99098.34;1757611;78;21212;-74
2021/01/29 04:25:26;;;;;;;7.42;3.55;;;;;;;-0.74;100.00;99099.09;1795098;78;21187;-72
2021/01/29 04:28:00;;;;;;;7.35;4.05;;;;;;;-0.81;100.00;99098.50;1798637;78;20986;-75
2021/01/29 04:30:30;;;;;;;6.10;3.72;;;;;;;-0.89;100.00;99094.08;1788662;78;21076;-72
2021/01/29 04:33:06;;;;;;;6.60;4.22;;;;;;;-0.96;100.00;99097.33;1791766;78;21148;-74
2021/01/29 04:35:36;;;;;;;9.83;4.53;;;;;;;-1.03;100.00;99106.81;1795603;78;22039;-75
2021/01/29 04:38:24;;;;;;;10.28;5.20;;;;;;;-1.09;100.00;99100.19;1794395;78;21604;-74
2021/01/29 04:41:09;;;;;;;7.17;4.78;;;;;;;-1.14;100.00;99103.61;1806845;78;20980;-74
2021/01/29 04:44:11;;;;;;;7.70;4.22;;;;;;;-1.19;100.00;99101.47;1795725;78;21588;-69
2021/01/29 04:47:14;;;;;;;6.97;4.10;;;;;;;-1.25;100.00;99107.11;1805505;78;21045;-73
2021/01/29 04:50:05;;;;;;;7.97;3.90;;;;;;;-1.31;100.00;99106.39;1808807;77;21216;-75
2021/01/29 04:53:02;;;;;;;6.40;3.98;;;;;;;-1.34;100.00;99105.38;1808050;77;21006;-75
2021/01/29 04:55:56;;;;;;;5.78;3.35;;;;;;;-1.38;100.00;99117.62;1774949;79;20911;-69
2021/01/29 04:58:39;;;;;;;7.58;3.98;;;;;;;-1.41;100.00;99120.44;1782146;79;21665;-69
2021/01/29 05:01:59;;;;;;;7.33;4.10;;;;;;;-1.45;100.00;99119.56;1794988;78;21116;-68
2021/01/29 05:05:17;;;;;;;8.53;5.20;;;;;;;-1.49;100.00;99122.86;1781242;78;21208;-68
2021/01/29 05:08:32;;;;;;;9.70;5.55;;;;;;;-1.51;100.00;99139.62;1758026;79;21194;-67
2021/01/29 05:11:36;;;;;;;11.57;5.03;;;;;;;-1.54;100.00;99144.98;1781568;79;21155;-69
2021/01/29 05:14:29;;;;;;;9.05;5.33;;;;;;;-1.56;100.00;99153.24;1797842;77;21544;-70
2021/01/29 05:17:22;;;;;;;8.20;4.80;;;;;;;-1.55;100.00;99159.19;1801980;79;21066;-71
2021/01/29 05:19:55;;;;;;;8.45;4.87;;;;;;;-1.55;100.00;99165.10;1804170;79;21289;-66
2021/01/29 05:23:00;;;;;;;13.00;5.30;;;;;;;-1.55;100.00;99164.30;1806480;79;21011;-65
2021/01/29 05:26:05;;;;;;;7.30;4.62;;;;;;;-1.55;100.00;99173.24;1788643;79;21186;-67
2021/01/29 05:29:24;;;;;;;12.30;5.53;;;;;;;-1.56;100.00;99173.69;1797009;77;21163;-67
2021/01/29 05:32:23;;;;;;;7.28;4.58;;;;;;;-1.51;100.00;99192.48;1798004;79;21097;-66
2021/01/29 05:35:21;;;;;;;6.95;4.97;;;;;;;-1.41;100.00;99170.28;1797833;79;21206;-64
2021/01/29 05:38:11;;;;;;;10.28;5.70;;;;;;;-1.27;100.00;99175.48;1792568;79;21132;-66
2021/01/29 05:40:52;;;;;;;9.40;5.25;;;;;;;-1.00;100.00;99176.09;1800515;77;21103;-65
2021/01/29 05:43:41;;;;;;;;;;;;;;;-0.68;100.00;99177.07;1786918;79;21554;-66
2021/01/29 05:46:25;;;;;;;9.33;5.55;;;;;;;-0.49;100.00;99174.95;1802074;77;20206;-68
2021/01/29 05:49:15;;;;;;;10.38;5.60;;;;;;;-0.27;100.00;99175.86;1800024;79;21170;-64
2021/01/29 05:51:55;;;;;;;9.58;5.47;;;;;;;0.11;100.00;99181.77;1796809;77;21017;-68
2021/01/29 05:54:48;;;;;;;9.43;5.85;;;;;;;0.49;100.00;99179.95;1796457;79;21123;-66
2021/01/29 05:57:46;;;;;;;8.85;5.10;;;;;;;0.78;100.00;99177.19;1801820;79;21132;-68
2021/01/29 06:01:10;;;;;;;8.38;5.80;;;;;;;1.11;100.00;99174.91;1796404;78;21542;-69
2021/01/29 06:04:06;;;;;;;11.18;6.20;;;;;;;1.49;100.00;99191.70;1790652;77;21452;-67
2021/01/29 06:07:10;;;;;;;8.60;4.78;;;;;;;2.04;100.00;99187.97;1803077;78;20992;-67
2021/01/29 06:10:23;;;;;;;10.48;5.78;;;;;;;2.42;100.00;99186.66;1807862;78;21048;-65
2021/01/29 06:13:37;;;;;;;9.27;5.53;;;;;;;2.49;100.00;99177.35;1802033;78;21077;-68
2021/01/29 06:16:38;;;;;;;10.93;6.28;;;;;;;2.31;100.00;99190.34;1806170;77;21135;-68
2021/01/29 06:19:30;;;;;;;10.08;7.45;;;;;;;2.29;100.00;99181.97;1810530;78;21183;-70
2021/01/29 06:22:28;;;;;;;10.93;8.15;;;;;;;2.30;100.00;99191.77;1814081;78;21502;-70
2021/01/29 06:25:45;;;;;;;18.17;11.73;;;;;;;2.42;100.00;99182.34;1808279;77;21491;-69
2021/01/29 06:28:52;;;;;;;17.32;12.03;;;;;;;2.47;100.00;99170.28;1812958;78;22103;-68
2021/01/29 06:31:37;;;;;;;9.08;6.05;;;;;;;2.10;100.00;99197.16;1798630;78;21484;-73
2021/01/29 06:34:26;;;;;;;9.75;5.42;;;;;;;1.84;100.00;99200.25;1771711;80;21368;-72
2021/01/29 06:37:24;;;;;;;11.35;8.10;;;;;;;1.70;100.00;99196.02;1764151;79;21645;-73
2021/01/29 06:40:19;;;;;;;25.60;14.85;;;;;;;1.56;100.00;99181.16;1737166;80;21140;-71
2021/01/29 06:43:07;;;;;;;8.45;5.40;;;;;;;1.52;100.00;99204.25;1745093;82;20982;-69
2021/01/29 06:46:17;;;;;;;9.68;5.72;;;;;;;1.43;100.00;99205.94;1743730;81;20974;-71
2021/01/29 06:49:27;;;;;;;8.15;5.17;;;;;;;1.36;100.00;99195.93;1740513;80;23645;-69
2021/01/29 06:52:37;;;;;;;11.05;6.30;;;;;;;1.29;100.00;99203.09;1746232;80;21052;-69
2021/01/29 06:56:00;;;;;;;9.85;6.10;;;;;;;1.40;100.00;99202.86;1745591;82;21412;-69
2021/01/29 06:58:47;;;;;;;9.80;6.42;;;;;;;1.72;100.00;99211.75;1746331;82;21418;-70
2021/01/29 07:01:44;;;;;;;9.18;6.03;;;;;;;2.09;100.00;99208.41;1742301;80;21590;-67
2021/01/29 07:04:38;;;;;;;7.28;5.03;;;;;;;2.37;100.00;99220.56;1798825;79;21360;-67
2021/01/29 07:07:54;;;;;;;7.65;5.05;;;;;;;2.79;100.00;99215.05;1794260;78;21100;-69
2021/01/29 07:10:49;;;;;;;8.33;6.03;;;;;;;3.17;100.00;99220.06;1796048;78;21067;-69
2021/01/29 07:13:54;;;;;;;8.03;5.03;;;;;;;3.54;100.00;99221.34;1793717;79;21148;-69
2021/01/29 07:17:04;;;;;;;10.55;5.53;;;;;;;3.88;96.15;99210.81;1766430;79;21117;-68
2021/01/29 07:20:19;;;;;;;8.38;6.03;;;;;;;4.14;94.06;99215.72;1730137;82;25822;-68
2021/01/29 07:23:22;;;;;;;8.65;5.28;;;;;;;4.32;89.60;99207.77;1721280;82;21266;-67
2021/01/29 07:25:59;;;;;;;8.65;5.80;;;;;;;4.26;86.15;99213.58;1722478;81;20960;-68
2021/01/29 07:28:44;;;;;;;8.13;4.87;;;;;;;4.16;86.95;99220.22;1779952;79;20919;-68
2021/01/29 07:31:31;;;;;;;8.68;5.70;;;;;;;4.07;87.54;99219.45;1751608;78;21036;-63
2021/01/29 07:34:49;;;;;;;8.30;5.40;;;;;;;4.04;90.70;99218.48;1777301;78;21359;-67
2021/01/29 07:37:54;;;;;;;9.38;6.03;;;;;;;4.14;89.96;99222.97;1784685;78;21458;-66
2021/01/29 07:41:01;;;;;;;18.57;11.70;;;;;;;4.23;88.41;99217.78;1798058;79;32717;-68
2021/01/29 07:44:07;;;;;;;9.85;6.33;;;;;;;4.12;86.19;99228.77;1784134;78;21618;-66
2021/01/29 07:47:13;;;;;;;9.23;5.37;;;;;;;3.98;87.57;99216.59;1789817;78;21511;-69
2021/01/29 07:50:22;;;;;;;7.83;5.53;;;;;;;4.01;89.62;99216.23;1789308;78;21211;-67
2021/01/29 07:53:06;;;;;;;7.87;5.22;;;;;;;4.22;89.55;99216.18;1810695;78;21007;-68
2021/01/29 07:56:18;;;;;;;7.70;4.87;;;;;;;4.46;87.52;99222.50;1797122;78;21188;-64
2021/01/29 07:59:37;;;;;;;8.73;5.72;;;;;;;4.71;86.39;99223.68;1798874;78;21125;-70
2021/01/29 08:02:44;;;;;;;7.63;5.10;;;;;;;4.92;83.41;99216.11;1789912;78;21150;-69
2021/01/29 08:05:53;;;;;;;7.73;5.50;;;;;;;4.88;80.32;99221.30;1780831;80;21679;-67
2021/01/29 08:08:26;;;;;;;8.37;5.87;;;;;;;4.61;82.90;99222.11;1749830;80;21451;-67
2021/01/29 08:10:58;;;;;;;8.63;6.03;;;;;;;4.24;85.42;99219.38;1751512;80;21209;-68
2021/01/29 08:13:50;;;;;;;10.48;6.90;;;;;;;4.12;89.45;99222.31;1742054;80;21607;-66
2021/01/29 08:16:53;;;;;;;8.80;6.33;;;;;;;4.38;89.67;99223.34;1807376;78;23201;-67
2021/01/29 08:19:33;;;;;;;11.45;6.65;;;;;;;4.58;88.58;99226.34;1783322;79;22596;-67
2021/01/29 08:22:25;;;;;;;9.43;6.60;;;;;;;4.79;85.52;99228.80;1781626;79;22264;-66
2021/01/29 08:25:24;;;;;;;10.97;8.20;;;;;;;4.94;83.85;99223.70;1792406;78;21690;-69
2021/01/29 08:28:39;;;;;;;10.00;6.33;;;;;;;4.87;80.82;99246.32;1735350;82;21276;-69
2021/01/29 08:31:16;;;;;;;9.13;6.77;;;;;;;4.47;80.44;99235.75;1728395;81;21507;-69
2021/01/29 08:34:30;;;;;;;14.10;9.15;;;;;;;3.88;86.08;99240.45;1740869;80;21657;-68
2021/01/29 08:40:49;;;;;;;8.98;5.80;;;;;;;3.17;96.62;99235.52;1711927;81;21636;-68
2021/01/29 08:43:52;;;;;;;8.28;5.53;;;;;;;2.96;97.84;99241.63;1716669;82;21306;-67
2021/01/29 08:46:38;;;;;;;8.85;6.35;;;;;;;2.84;100.00;99234.66;1710615;82;21146;-64
2021/01/29 08:49:43;;;;;;;10.90;7.78;;;;;;;2.86;100.00;99239.98;1722692;82;21510;-69
2021/01/29 08:56:02;;;;;;;12.23;7.92;;;;;;;3.07;100.00;99229.25;1691685;83;21160;-68
2021/01/29 08:59:04;;;;;;;10.17;7.43;;;;;;;3.02;100.00;99223.75;1807934;76;27986;-67
2021/01/29 09:01:59;;;;;;;11.65;7.53;;;;;;;2.86;100.00;99219.88;1742727;81;21015;-66
2021/01/29 09:04:34;;;;;;;10.48;7.17;;;;;;;2.65;100.00;99232.72;1739966;80;21512;-66
2021/01/29 09:07:06;;;;;;;9.43;6.65;;;;;;;2.44;100.00;99226.70;1725972;79;21029;-67
2021/01/29 09:09:36;;;;;;;10.45;7.25;;;;;;;2.22;100.00;99227.73;1756199;79;21149;-66
2021/01/29 09:12:08;;;;;;;9.18;6.45;;;;;;;1.99;100.00;99226.19;1770002;79;20994;-66
2021/01/29 09:14:39;;;;;;;;;;;;;;;1.81;100.00;99224.95;1706828;80;21502;-66
2021/01/29 09:17:21;;;;;;;11.88;6.80;;;;;;;1.61;100.00;99212.32;1762918;79;21211;-63
2021/01/29 09:19:57;;;;;;;;;;;;;;;1.43;100.00;99219.25;1773639;79;21079;-66
2021/01/29 09:22:30;;;;;;;11.00;7.20;;;;;;;1.20;100.00;99219.73;1733326;81;20125;-68
2021/01/29 09:25:21;;;;;;;10.15;6.65;;;;;;;0.98;100.00;99225.30;1729332;79;21079;-64
2021/01/29 09:28:14;;;;;;;12.43;7.78;;;;;;;0.79;100.00;99233.14;1768030;80;21716;-68
2021/01/29 09:30:57;;;;;;;11.40;7.80;;;;;;;0.62;100.00;99235.55;1760704;79;21495;-68
2021/01/29 09:33:38;;;;;;;;;;;;;;;0.51;100.00;99234.95;1742006;81;21138;-68
2021/01/29 09:36:21;;;;;;;12.40;8.00;;;;;;;0.41;100.00;99229.38;1738440;81;20158;-69
2021/01/29 09:39:10;;;;;;;13.20;8.73;;;;;;;0.27;100.00;99228.59;1714219;81;21648;-70
2021/01/29 09:41:45;;;;;;;12.75;8.68;;;;;;;0.15;100.00;99225.41;1731552;79;21471;-70
2021/01/29 09:44:43;;;;;;;12.80;8.53;;;;;;;0.07;100.00;99222.72;1750637;79;22260;-70
2021/01/29 09:47:18;;;;;;;13.00;8.43;;;;;;;0.03;100.00;99220.11;1771264;78;21786;-70
2021/01/29 09:49:46;;;;;;;13.10;8.95;;;;;;;-0.02;100.00;99212.05;1741628;81;21061;-69
2021/01/29 09:52:26;;;;;;;12.82;8.63;;;;;;;-0.08;100.00;99212.12;1746657;81;21129;-68
2021/01/29 09:55:08;;;;;;;13.15;8.50;;;;;;;-0.15;100.00;99205.97;1681854;80;21206;-67
2021/01/29 09:57:59;;;;;;;10.32;7.15;;;;;;;-0.28;100.00;99207.55;1747359;79;21213;-67
2021/01/29 10:00:36;;;;;;;13.40;8.05;;;;;;;-0.41;100.00;99203.22;1725773;82;21080;-66
2021/01/29 10:03:19;;;;;;;13.13;7.62;;;;;;;-0.52;100.00;99207.21;1744712;79;21227;-67
2021/01/29 10:05:50;;;;;;;20.32;11.40;;;;;;;-0.58;100.00;99198.80;1713530;81;20968;-67
2021/01/29 10:08:35;;;;;;;13.60;9.33;;;;;;;-0.61;100.00;99198.59;1721281;81;21079;-67
2021/01/29 10:11:36;;;;;;;14.07;8.63;;;;;;;-0.62;100.00;99198.73;1722231;81;21302;-67
2021/01/29 10:14:31;;;;;;;13.05;7.40;;;;;;;-0.65;100.00;99194.69;1733217;82;22354;-66
2021/01/29 10:17:29;;;;;;;11.70;7.28;;;;;;;-0.67;100.00;99186.83;1741213;79;21220;-67
2021/01/29 10:20:07;;;;;;;12.28;7.53;;;;;;;-0.69;100.00;99181.03;1675964;83;21686;-66
2021/01/29 10:23:14;;;;;;;12.13;8.18;;;;;;;-0.70;100.00;99180.23;1735001;79;21511;-66
2021/01/29 10:26:11;;;;;;;12.05;8.93;;;;;;;-0.70;100.00;99176.87;1731852;81;21313;-65
2021/01/29 10:29:14;;;;;;;11.50;7.85;;;;;;;-0.68;100.00;99174.96;1747868;79;21631;-67
2021/01/29 10:32:04;;;;;;;13.03;8.63;;;;;;;-0.65;100.00;99174.69;1749924;80;21146;-66
2021/01/29 10:34:55;;;;;;;11.57;7.95;;;;;;;-0.62;100.00;99164.19;1720210;82;21593;-67
2021/01/29 10:37:31;;;;;;;13.18;8.43;;;;;;;-0.54;100.00;99160.45;1727345;81;21063;-66
2021/01/29 10:40:27;;;;;;;13.75;8.90;;;;;;;-0.45;100.00;99167.80;1728401;81;22153;-66
2021/01/29 10:43:29;;;;;;;10.78;7.83;;;;;;;-0.41;100.00;99167.85;1795729;78;21493;-66
2021/01/29 10:46:27;;;;;;;10.68;7.67;;;;;;;-0.33;100.00;99157.23;1781139;78;21209;-64
2021/01/29 10:49:53;;;;;;;11.35;7.87;;;;;;;-0.20;100.00;99150.98;1790125;78;20941;-68
2021/01/29 10:52:46;;;;;;;10.50;6.95;;;;;;;-0.07;100.00;99154.84;1780636;78;21184;-65
2021/01/29 10:55:25;;;;;;;9.95;6.50;;;;;;;0.06;100.00;99160.91;1767481;79;21225;-65
2021/01/29 10:58:07;;;;;;;12.78;7.03;;;;;;;0.17;100.00;99150.47;1778556;78;21162;-65
2021/01/29 11:00:37;;;;;;;9.23;7.33;;;;;;;0.27;100.00;99146.58;1793453;78;22270;-67
2021/01/29 11:03:14;;;;;;;11.80;8.55;;;;;;;0.37;100.00;99140.09;1799521;78;20944;-65
2021/01/29 11:05:44;;;;;;;10.85;7.25;;;;;;;0.42;100.00;99136.64;1793638;79;20941;-68
2021/01/29 11:08:30;;;;;;;11.65;8.33;;;;;;;0.48;100.00;99129.15;1777832;78;22842;-65
2021/01/29 11:11:11;;;;;;;9.30;7.05;;;;;;;0.53;100.00;99135.14;1787306;78;20955;-66
2021/01/29 11:14:05;;;;;;;9.55;6.83;;;;;;;0.60;100.00;99132.30;1789359;78;21578;-64
2021/01/29 11:16:49;;;;;;;10.70;7.50;;;;;;;0.65;100.00;99128.84;1777638;78;20980;-64
2021/01/29 11:19:27;;;;;;;10.95;6.22;;;;;;;0.67;100.00;99126.91;1798287;78;21150;-66
2021/01/29 11:22:18;;;;;;;11.18;7.47;;;;;;;0.79;100.00;99131.34;1767918;79;21206;-64
2021/01/29 11:25:37;;;;;;;15.03;9.53;;;;;;;0.95;100.00;99129.41;1774172;78;21101;-63
2021/01/29 11:28:37;;;;;;;12.47;8.55;;;;;;;1.12;100.00;99129.83;1719250;82;21365;-64
2021/01/29 11:31:17;;;;;;;11.48;8.28;;;;;;;1.24;100.00;99123.17;1719645;82;22284;-65
2021/01/29 11:33:49;;;;;;;12.23;8.13;;;;;;;1.19;100.00;99127.00;1762343;78;21147;-63
2021/01/29 11:36:38;;;;;;;9.60;6.62;;;;;;;1.14;100.00;99122.00;1718211;81;21274;-63
2021/01/29 11:39:24;;;;;;;11.03;6.87;;;;;;;1.12;100.00;99123.90;1732137;81;22502;-62
2021/01/29 11:42:06;;;;;;;12.75;9.53;;;;;;;1.10;100.00;99118.93;1757595;79;21431;-63
2021/01/29 11:45:02;;;;;;;9.95;6.70;;;;;;;1.09;100.00;99113.93;1777782;78;21065;-63
2021/01/29 11:48:01;;;;;;;8.65;5.60;;;;;;;1.06;100.00;99108.64;1771667;78;21616;-63
2021/01/29 11:50:49;;;;;;;28.60;14.47;;;;;;;1.07;100.00;99112.81;1781069;78;21714;-65
2021/01/29 11:53:33;;;;;;;9.18;6.62;;;;;;;1.12;100.00;99109.78;1764636;79;21153;-65
2021/01/29 11:56:34;;;;;;;9.73;5.83;;;;;;;1.19;100.00;99111.59;1745453;78;21660;-65
2021/01/29 11:59:36;;;;;;;9.30;5.08;;;;;;;1.23;100.00;99104.41;1783772;79;21218;-64
2021/01/29 12:02:33;;;;;;;7.35;5.25;;;;;;;1.26;100.00;99105.39;1783454;78;21119;-65
2021/01/29 12:05:24;;;;;;;7.05;4.60;;;;;;;1.28;100.00;99103.94;1797575;78;22328;-65
2021/01/29 12:08:23;;;;;;;7.92;5.00;;;;;;;1.27;100.00;99104.91;1787662;78;21671;-64
2021/01/29 12:11:00;;;;;;;8.35;5.05;;;;;;;1.27;100.00;99103.63;1787283;78;21229;-64
2021/01/29 12:14:12;;;;;;;8.40;5.37;;;;;;;1.24;100.00;99098.78;1784107;79;21222;-63
2021/01/29 12:16:41;;;;;;;7.70;4.92;;;;;;;1.25;100.00;99088.84;1790767;78;21248;-64
2021/01/29 12:19:10;;;;;;;10.78;6.00;;;;;;;1.22;100.00;99089.97;1771898;79;22104;-64
2021/01/29 12:21:47;;;;;;;8.80;5.10;;;;;;;1.15;100.00;99085.11;1775933;78;21628;-63
2021/01/29 12:25:12;;;;;;;12.73;7.22;;;;;;;1.04;100.00;99090.48;1746789;79;21227;-64
2021/01/29 12:28:16;;;;;;;12.98;7.33;;;;;;;0.94;100.00;99080.30;1728612;80;21272;-63
2021/01/29 12:31:23;;;;;;;10.45;6.28;;;;;;;0.87;100.00;99083.14;1675944;80;21592;-67
2021/01/29 12:34:07;;;;;;;10.43;6.50;;;;;;;0.84;100.00;99080.90;1734340;81;21235;-69
2021/01/29 12:36:37;;;;;;;10.55;6.80;;;;;;;0.84;100.00;99078.33;1747541;80;21063;-69
2021/01/29 12:39:25;;;;;;;10.00;6.20;;;;;;;0.84;100.00;99079.13;1741464;79;21157;-69
2021/01/29 12:41:58;;;;;;;13.98;9.85;;;;;;;0.86;100.00;99077.69;1735592;80;21226;-69
2021/01/29 12:44:56;;;;;;;12.82;8.45;;;;;;;0.87;100.00;99082.69;1732300;81;21200;-69
2021/01/29 12:47:48;;;;;;;11.95;8.28;;;;;;;0.88;100.00;99079.64;1780743;78;21199;-69
2021/01/29 12:50:58;;;;;;;12.07;7.50;;;;;;;0.88;100.00;99079.64;1774137;79;21145;-69
2021/01/29 12:53:50;;;;;;;14.23;9.95;;;;;;;0.88;100.00;99079.64;1790054;78;21128;-69
2021/01/29 12:56:26;;;;;;;9.50;6.80;;;;;;;0.88;100.00;99083.01;1783983;78;29209;-70
2021/01/29 12:58:57;;;;;;;9.30;6.10;;;;;;;0.89;100.00;99077.39;1795566;78;21104;-70
2021/01/29 13:01:40;;;;;;;8.35;5.70;;;;;;;0.88;100.00;99078.36;1778988;79;22106;-70
2021/01/29 13:04:30;;;;;;;8.58;5.80;;;;;;;0.88;100.00;99077.88;1784247;79;21985;-70
2021/01/29 13:07:13;;;;;;;10.18;5.83;;;;;;;0.87;100.00;99078.84;1762879;79;21201;-70
2021/01/29 13:10:07;;;;;;;8.10;5.67;;;;;;;0.87;100.00;99071.59;1779363;79;21000;-70
2021/01/29 13:13:09;;;;;;;10.13;6.03;;;;;;;0.87;100.00;99073.71;1768675;79;21504;-70
2021/01/29 13:16:12;;;;;;;8.78;6.03;;;;;;;0.86;100.00;99068.71;1755695;79;22369;-68
2021/01/29 13:19:03;;;;;;;10.20;6.50;;;;;;;0.82;100.00;99069.48;1716844;82;21929;-68
2021/01/29 13:21:39;;;;;;;9.35;5.58;;;;;;;0.78;100.00;99068.17;1764830;79;21129;-68
2021/01/29 13:24:30;;;;;;;10.50;5.97;;;;;;;0.77;100.00;99069.62;1787421;79;21115;-69
2021/01/29 13:27:02;;;;;;;10.00;6.37;;;;;;;0.75;100.00;99061.25;1773095;79;21627;-71
2021/01/29 13:29:32;;;;;;;10.58;6.03;;;;;;;0.73;100.00;99059.66;1778747;79;21364;-68
2021/01/29 13:32:28;;;;;;;11.83;7.75;;;;;;;0.72;100.00;99054.20;1714446;83;21212;-68
2021/01/29 13:34:56;;;;;;;9.68;6.55;;;;;;;0.73;100.00;99054.52;1785360;79;20975;-69
2021/01/29 13:37:28;;;;;;;11.00;7.72;;;;;;;0.73;100.00;99053.23;1786595;79;21996;-68
2021/01/29 13:40:27;;;;;;;17.48;15.30;;;;;;;0.75;100.00;99051.80;1785744;78;21588;-70
2021/01/29 13:42:56;;;;;;;14.83;10.75;;;;;;;0.79;100.00;99044.61;1785175;79;21511;-69
2021/01/29 13:45:31;;;;;;;17.15;8.28;;;;;;;0.81;100.00;99049.92;1776562;79;20998;-70
2021/01/29 13:48:17;;;;;;;11.03;6.47;;;;;;;0.82;100.00;99045.11;1785431;79;21134;-69
2021/01/29 13:50:49;;;;;;;12.90;7.15;;;;;;;0.85;100.00;99045.30;1781362;79;21137;-68
2021/01/29 13:53:34;;;;;;;15.13;8.68;;;;;;;0.85;100.00;99050.44;1715804;82;21116;-69
2021/01/29 13:56:38;;;;;;;11.53;6.95;;;;;;;0.85;100.00;99040.17;1781528;79;22221;-68
2021/01/29 13:59:20;;;;;;;8.38;5.87;;;;;;;0.84;100.00;99034.24;1789249;78;21105;-71
2021/01/29 14:02:14;;;;;;;9.23;6.30;;;;;;;0.87;100.00;99047.22;1795833;78;21083;-69
2021/01/29 14:04:45;;;;;;;9.48;6.17;;;;;;;0.87;100.00;99036.52;1797205;78;21549;-69
2021/01/29 14:07:13;;;;;;;8.90;6.25;;;;;;;0.85;100.00;99042.73;1789267;78;21245;-69
2021/01/29 14:09:41;;;;;;;45.23;16.35;;;;;;;0.85;100.00;99033.76;1794853;78;21390;-69
2021/01/29 14:12:37;;;;;;;21.62;13.05;;;;;;;0.86;100.00;99040.01;1789788;78;21229;-69
2021/01/29 14:15:20;;;;;;;42.60;18.20;;;;;;;0.87;100.00;99036.96;1771470;78;21161;-68
2021/01/29 14:18:05;;;;;;;12.78;6.37;;;;;;;0.88;100.00;99036.83;1737815;81;21074;-69
2021/01/29 14:20:45;;;;;;;19.77;11.30;;;;;;;0.88;100.00;99039.39;1763941;80;21506;-68
2021/01/29 14:23:29;;;;;;;12.20;7.25;;;;;;;0.89;100.00;99047.41;1775632;78;22130;-69
2021/01/29 14:26:38;;;;;;;9.80;6.10;;;;;;;0.87;100.00;99035.68;1774916;78;21084;-70
2021/01/29 14:29:30;;;;;;;26.10;12.47;;;;;;;0.86;100.00;99041.30;1745231;81;21054;-68
2021/01/29 14:32:21;;;;;;;11.75;7.92;;;;;;;0.85;100.00;99031.19;1747597;80;20995;-68
2021/01/29 14:35:20;;;;;;;11.38;6.55;;;;;;;0.82;100.00;99036.14;1686129;84;21247;-67
2021/01/29 14:38:15;;;;;;;10.50;7.10;;;;;;;0.80;100.00;99036.78;1758366;80;21473;-68
2021/01/29 14:41:28;;;;;;;13.60;8.80;;;;;;;0.78;100.00;99037.39;1766255;80;21245;-68
2021/01/29 14:44:36;;;;;;;11.70;8.25;;;;;;;0.75;100.00;99037.69;1765157;80;21158;-68
2021/01/29 14:47:34;;;;;;;13.85;9.23;;;;;;;0.74;100.00;99041.22;1747048;81;20981;-69
2021/01/29 14:50:20;;;;;;;19.12;10.75;;;;;;;0.73;100.00;99042.18;1776111;80;21556;-69
2021/01/29 14:53:12;;;;;;;15.93;9.08;;;;;;;0.72;100.00;99049.08;1756917;80;21202;-68
2021/01/29 14:56:12;;;;;;;15.28;9.38;;;;;;;0.70;100.00;99048.41;1748391;80;21185;-68
2021/01/29 14:58:50;;;;;;;13.18;7.87;;;;;;;0.71;100.00;99050.00;1742742;80;22109;-69
2021/01/29 15:01:23;;;;;;;12.33;8.58;;;;;;;0.70;100.00;99048.41;1748844;79;21065;-68
2021/01/29 15:04:05;;;;;;;11.95;8.43;;;;;;;0.68;100.00;99046.48;1734994;79;21563;-69
2021/01/29 15:07:52;;;;;;;17.73;11.07;;;;;;;0.71;100.00;99041.52;1796324;78;23350;-70
2021/01/29 15:10:28;;;;;;;20.45;14.05;;;;;;;0.65;100.00;99049.82;1750823;80;21014;-70
2021/01/29 15:12:57;;;;;;;18.57;13.15;;;;;;;0.63;100.00;99044.82;1769950;80;21216;-71
2021/01/29 15:15:34;;;;;;;13.28;9.13;;;;;;;0.61;100.00;99042.90;1725245;82;21009;-69
2021/01/29 15:18:08;;;;;;;12.73;8.50;;;;;;;0.60;100.00;99045.11;1741493;81;21205;-69
2021/01/29 15:20:52;;;;;;;13.43;7.35;;;;;;;0.60;100.00;99037.90;1736810;81;20994;-69
2021/01/29 15:23:36;;;;;;;13.05;7.53;;;;;;;0.60;100.00;99034.05;1713776;81;21038;-69
2021/01/29 15:26:16;;;;;;;19.20;9.93;;;;;;;0.60;100.00;99036.14;1724306;82;21410;-69
2021/01/29 15:28:52;;;;;;;17.67;11.25;;;;;;;0.59;100.00;99033.25;1707737;81;20974;-71
2021/01/29 15:31:25;;;;;;;12.95;8.68;;;;;;;0.60;100.00;99036.14;1717597;83;21086;-69
2021/01/29 15:33:56;;;;;;;11.53;8.05;;;;;;;0.60;100.00;99027.16;1704211;82;21121;-69
2021/01/29 15:36:48;;;;;;;12.47;7.75;;;;;;;0.61;100.00;99028.80;1715939;82;21025;-70
2021/01/29 15:39:27;;;;;;;11.30;7.28;;;;;;;0.60;100.00;99029.73;1712385;82;21391;-69
2021/01/29 15:41:59;;;;;;;10.75;7.65;;;;;;;0.59;100.00;99029.89;1716906;82;21089;-70
2021/01/29 15:44:33;;;;;;;14.10;8.75;;;;;;;0.58;100.00;99031.65;1725074;82;22532;-69
2021/01/29 15:47:42;;;;;;;13.30;8.75;;;;;;;0.58;100.00;99029.09;1715046;82;21267;-70
2021/01/29 15:50:50;;;;;;;15.48;8.50;;;;;;;0.59;100.00;99033.25;1712200;82;21550;-69
2021/01/29 15:53:46;;;;;;;13.05;8.58;;;;;;;0.60;100.00;99032.77;1717521;82;22515;-68
2021/01/29 15:56:40;;;;;;;13.72;8.45;;;;;;;0.61;100.00;99030.55;1720590;82;21572;-72
2021/01/29 15:59:20;;;;;;;59.05;25.35;;;;;;;0.61;100.00;99030.08;1724432;82;20938;-77
2021/01/29 16:01:51;;;;;;;20.20;12.30;;;;;;;0.61;100.00;99029.27;1714203;82;21105;-73
2021/01/29 16:04:28;;;;;;;18.45;11.28;;;;;;;0.62;100.00;99027.03;1717462;82;21250;-73
2021/01/29 16:07:04;;;;;;;20.60;12.33;;;;;;;0.64;100.00;99031.52;1715635;82;21225;-70
2021/01/29 16:09:43;;;;;;;23.73;14.28;;;;;;;0.67;100.00;99033.79;1687247;83;21026;-73
2021/01/29 16:12:37;;;;;;;22.20;13.58;;;;;;;0.68;100.00;99027.25;1733479;81;20997;-70
2021/01/29 16:15:13;;;;;;;21.65;12.98;;;;;;;0.69;100.00;99031.41;1752492;81;21635;-70
2021/01/29 16:17:49;;;;;;;19.42;12.68;;;;;;;0.72;100.00;99031.12;1756605;81;21176;-70
2021/01/29 16:20:21;;;;;;;17.07;11.45;;;;;;;0.72;100.00;99025.19;1752287;81;22195;-72
2021/01/29 16:23:01;;;;;;;16.20;10.90;;;;;;;0.74;100.00;99023.27;1741096;81;21007;-74
2021/01/29 16:25:29;;;;;;;13.53;9.90;;;;;;;0.75;100.00;99026.14;1721152;82;20935;-70
2021/01/29 16:28:00;;;;;;;16.12;10.60;;;;;;;0.77;100.00;99025.53;1727225;81;21057;-73
2021/01/29 16:30:31;;;;;;;16.60;11.20;;;;;;;0.78;100.00;99028.41;1746309;81;20967;-73
2021/01/29 16:33:10;;;;;;;16.10;11.05;;;;;;;0.78;100.00;99017.36;1744184;81;21350;-73
2021/01/29 16:35:55;;;;;;;19.60;12.28;;;;;;;0.79;100.00;99021.52;1736405;81;21058;-74
2021/01/29 16:38:28;;;;;;;17.95;11.60;;;;;;;0.79;100.00;99014.62;1738157;81;21572;-74
2021/01/29 16:40:57;;;;;;;13.35;8.98;;;;;;;0.79;100.00;99018.47;1755363;81;21659;-74
2021/01/29 16:43:34;;;;;;;14.23;8.98;;;;;;;0.80;100.00;99009.84;1756461;81;21093;-77
2021/01/29 16:46:25;;;;;;;14.70;8.93;;;;;;;0.82;100.00;99014.81;1745863;81;21211;-74
2021/01/29 16:48:55;;;;;;;14.87;9.03;;;;;;;0.82;100.00;99012.25;1736615;81;20995;-75
2021/01/29 16:51:23;;;;;;;14.80;8.95;;;;;;;0.82;100.00;99016.90;1731421;82;21539;-75
2021/01/29 16:53:55;;;;;;;17.20;10.43;;;;;;;0.83;100.00;99010.00;1749416;81;21152;-73
2021/01/29 16:56:25;;;;;;;14.78;8.33;;;;;;;0.83;100.00;99011.28;1761422;81;21129;-75
2021/01/29 16:59:06;;;;;;;10.82;7.17;;;;;;;0.83;100.00;99010.80;1760403;81;21203;-74
2021/01/29 17:01:41;;;;;;;16.40;10.28;;;;;;;0.84;100.00;99009.06;1711819;82;21027;-74
2021/01/29 17:04:12;;;;;;;14.60;9.85;;;;;;;0.84;100.00;99010.35;1744915;81;21638;-74
2021/01/29 17:06:53;;;;;;;15.48;9.10;;;;;;;0.84;100.00;99010.35;1697182;83;21013;-74
2021/01/29 17:09:26;;;;;;;16.97;9.93;;;;;;;0.84;100.00;99003.94;1689095;83;21610;-75
2021/01/29 17:11:54;;;;;;;15.75;8.63;;;;;;;0.86;100.00;98996.88;1706873;83;21197;-74
2021/01/29 17:14:26;;;;;;;17.42;11.10;;;;;;;0.87;100.00;98999.77;1698181;83;21011;-73
2021/01/29 17:16:58;;;;;;;16.23;10.25;;;;;;;0.88;100.00;98998.83;1707669;83;20969;-72